XASGN MMAN-MMTO
Flight info
| Callsign | XASGN |
|---|---|
| Flight time | N/A |
| Altitude | 38000 |
| Route | ADN DCT MTY UJ81 KERGA DCT AVURI UQ101 ITLAS ITLAS2A |
| Aircraft | B737/M-SDE2E3FGHIRWXY/LB1 |
Departure
| Time | 2026-05-08 01:47 |
|---|---|
| Airport | Del Norte International Airport (MMAN) |
Arrival
| Time | N/A |
|---|---|
| Airport | Adolfo López Mateos International Airport (MMTO) |
| Time | Latitude | Longitude | Altitude | Speed | Heading |
|---|---|---|---|---|---|
| 2026-05-08 01:32 | 25.85921 | -100.23958 | 1428 ft | 0 kts | 118° |
| 2026-05-08 01:41 | 25.85919 | -100.23952 | 1483 ft | 3 kts | 114° |
| 2026-05-08 01:41 | 25.85932 | -100.23925 | 1480 ft | 6 kts | 36° |
| 2026-05-08 01:41 | 25.85979 | -100.23936 | 1481 ft | 9 kts | 323° |
| 2026-05-08 01:41 | 25.86038 | -100.23945 | 1477 ft | 9 kts | 354° |
| 2026-05-08 01:42 | 25.86084 | -100.24000 | 1480 ft | 12 kts | 306° |
| 2026-05-08 01:42 | 25.86157 | -100.24009 | 1483 ft | 13 kts | 41° |
| 2026-05-08 01:42 | 25.86239 | -100.23945 | 1478 ft | 16 kts | 32° |
| 2026-05-08 01:42 | 25.86336 | -100.23878 | 1472 ft | 16 kts | 32° |
| 2026-05-08 01:43 | 25.86430 | -100.23813 | 1481 ft | 16 kts | 32° |
| 2026-05-08 01:43 | 25.86521 | -100.23750 | 1475 ft | 16 kts | 32° |
| 2026-05-08 01:43 | 25.86619 | -100.23681 | 1478 ft | 17 kts | 32° |
| 2026-05-08 01:43 | 25.86716 | -100.23614 | 1475 ft | 16 kts | 32° |
| 2026-05-08 01:44 | 25.86808 | -100.23551 | 1480 ft | 15 kts | 32° |
| 2026-05-08 01:44 | 25.86896 | -100.23490 | 1481 ft | 15 kts | 32° |
| 2026-05-08 01:44 | 25.86981 | -100.23430 | 1482 ft | 14 kts | 32° |
| 2026-05-08 01:44 | 25.87062 | -100.23374 | 1485 ft | 13 kts | 32° |
| 2026-05-08 01:45 | 25.87139 | -100.23320 | 1480 ft | 13 kts | 33° |
| 2026-05-08 01:45 | 25.87174 | -100.23275 | 1477 ft | 6 kts | 18° |
| 2026-05-08 01:45 | 25.87185 | -100.23284 | 1481 ft | 1 kts | 300° |
| 2026-05-08 01:45 | 25.87182 | -100.23295 | 1477 ft | 0 kts | 240° |
| 2026-05-08 01:46 | 25.87180 | -100.23299 | 1480 ft | 2 kts | 234° |
| 2026-05-08 01:46 | 25.87156 | -100.23314 | 1485 ft | 6 kts | 201° |
| 2026-05-08 01:46 | 25.87107 | -100.23344 | 1480 ft | 10 kts | 211° |
| 2026-05-08 01:46 | 25.87033 | -100.23395 | 1485 ft | 15 kts | 213° |
| 2026-05-08 01:47 | 25.86745 | -100.23597 | 1477 ft | 90 kts | 210° |
| 2026-05-08 01:47 | 25.85997 | -100.24120 | 1538 ft | 155 kts | 209° |
| 2026-05-08 01:47 | 25.85050 | -100.24802 | 2291 ft | 165 kts | 209° |
| 2026-05-08 01:48 | 25.83738 | -100.25738 | 3443 ft | 173 kts | 211° |
| 2026-05-08 01:48 | 25.81659 | -100.27124 | 4229 ft | 213 kts | 195° |
| 2026-05-08 01:48 | 25.80175 | -100.27266 | 4842 ft | 217 kts | 172° |
| 2026-05-08 01:48 | 25.78714 | -100.26770 | 5520 ft | 218 kts | 149° |
| 2026-05-08 01:49 | 25.77491 | -100.25791 | 6348 ft | 218 kts | 134° |
| 2026-05-08 01:49 | 25.76681 | -100.24359 | 7035 ft | 221 kts | 105° |
| 2026-05-08 01:49 | 25.76376 | -100.22692 | 7772 ft | 223 kts | 97° |
| 2026-05-08 01:49 | 25.76353 | -100.20953 | 8402 ft | 229 kts | 86° |
| 2026-05-08 01:50 | 25.76497 | -100.19161 | 9027 ft | 238 kts | 85° |
| 2026-05-08 01:50 | 25.76671 | -100.17243 | 9268 ft | 264 kts | 87° |
| 2026-05-08 01:50 | 25.76440 | -100.15189 | 9879 ft | 274 kts | 109° |
| 2026-05-08 01:50 | 25.76020 | -100.13827 | 10427 ft | 276 kts | 104° |
| 2026-05-08 01:51 | 25.75788 | -100.11703 | 11197 ft | 282 kts | 95° |
| 2026-05-08 01:51 | 25.75655 | -100.09496 | 11953 ft | 288 kts | 95° |
| 2026-05-08 01:51 | 25.75531 | -100.07283 | 12687 ft | 294 kts | 95° |
| 2026-05-08 01:51 | 25.75408 | -100.04976 | 13464 ft | 299 kts | 97° |
| 2026-05-08 01:52 | 25.74868 | -100.02755 | 14155 ft | 301 kts | 117° |
| 2026-05-08 01:52 | 25.73938 | -100.00684 | 14895 ft | 302 kts | 121° |
| 2026-05-08 01:52 | 25.72958 | -99.98621 | 15626 ft | 306 kts | 121° |
| 2026-05-08 01:52 | 25.71945 | -99.96494 | 16365 ft | 309 kts | 122° |
| 2026-05-08 01:53 | 25.70621 | -99.94654 | 17036 ft | 304 kts | 150° |
| 2026-05-08 01:53 | 25.68722 | -99.93819 | 17726 ft | 294 kts | 179° |
| 2026-05-08 01:53 | 25.66718 | -99.93985 | 18031 ft | 290 kts | 191° |
| 2026-05-08 01:53 | 25.64635 | -99.94257 | 18066 ft | 315 kts | 189° |
| 2026-05-08 01:54 | 25.62376 | -99.94493 | 18148 ft | 339 kts | 188° |
| 2026-05-08 01:54 | 25.59971 | -99.94710 | 18637 ft | 347 kts | 188° |
| 2026-05-08 01:54 | 25.57567 | -99.94907 | 19335 ft | 348 kts | 187° |
| 2026-05-08 01:54 | 25.55154 | -99.95094 | 20016 ft | 349 kts | 187° |
| 2026-05-08 01:55 | 25.52725 | -99.95278 | 20680 ft | 352 kts | 187° |
| 2026-05-08 01:55 | 25.50279 | -99.95461 | 21323 ft | 355 kts | 188° |
| 2026-05-08 01:55 | 25.47770 | -99.95647 | 21963 ft | 358 kts | 188° |
| 2026-05-08 01:55 | 25.45284 | -99.95831 | 22591 ft | 361 kts | 188° |
| 2026-05-08 01:56 | 25.42777 | -99.96016 | 23197 ft | 364 kts | 188° |
| 2026-05-08 01:56 | 25.40242 | -99.96202 | 23754 ft | 367 kts | 188° |
| 2026-05-08 01:56 | 25.37670 | -99.96392 | 24256 ft | 370 kts | 188° |
| 2026-05-08 01:56 | 25.35084 | -99.96581 | 24771 ft | 373 kts | 188° |
| 2026-05-08 01:57 | 25.32497 | -99.96771 | 25262 ft | 376 kts | 188° |
| 2026-05-08 01:57 | 25.29890 | -99.96962 | 25765 ft | 378 kts | 188° |
| 2026-05-08 01:57 | 25.27264 | -99.97155 | 26265 ft | 380 kts | 188° |
| 2026-05-08 01:57 | 25.24594 | -99.97350 | 26882 ft | 379 kts | 188° |
| 2026-05-08 01:58 | 25.21991 | -99.97539 | 27572 ft | 376 kts | 188° |
| 2026-05-08 01:58 | 25.19403 | -99.97726 | 28274 ft | 372 kts | 188° |
| 2026-05-08 01:58 | 25.16830 | -99.97913 | 28955 ft | 370 kts | 188° |
| 2026-05-08 01:58 | 25.14225 | -99.98104 | 29580 ft | 369 kts | 188° |
| 2026-05-08 01:59 | 25.11663 | -99.98291 | 30178 ft | 368 kts | 188° |
| 2026-05-08 01:59 | 25.09107 | -99.98478 | 30712 ft | 365 kts | 188° |
| 2026-05-08 01:59 | 25.06580 | -99.98662 | 31055 ft | 366 kts | 188° |
| 2026-05-08 01:59 | 25.04038 | -99.98850 | 31421 ft | 369 kts | 188° |
| 2026-05-08 02:00 | 25.01493 | -99.99037 | 31910 ft | 367 kts | 188° |
| 2026-05-08 02:00 | 24.98920 | -99.99224 | 32414 ft | 365 kts | 188° |
| 2026-05-08 02:00 | 24.96384 | -99.99409 | 32794 ft | 366 kts | 189° |
| 2026-05-08 02:00 | 24.93848 | -99.99594 | 33170 ft | 367 kts | 189° |
| 2026-05-08 02:01 | 24.91315 | -99.99780 | 33569 ft | 367 kts | 189° |
| 2026-05-08 02:01 | 24.88778 | -99.99964 | 34014 ft | 366 kts | 189° |
| 2026-05-08 02:01 | 24.86233 | -100.00150 | 34339 ft | 366 kts | 189° |
| 2026-05-08 02:01 | 24.83653 | -100.00338 | 34449 ft | 371 kts | 189° |
| 2026-05-08 02:02 | 24.78405 | -100.00727 | 34600 ft | 387 kts | 189° |
| 2026-05-08 02:02 | 24.72939 | -100.01129 | 34707 ft | 402 kts | 189° |
| 2026-05-08 02:03 | 24.67227 | -100.01544 | 34824 ft | 416 kts | 189° |
| 2026-05-08 02:03 | 24.61383 | -100.01968 | 34921 ft | 429 kts | 189° |
| 2026-05-08 02:04 | 24.55348 | -100.02403 | 35115 ft | 437 kts | 188° |
| 2026-05-08 02:04 | 24.52337 | -100.02619 | 35309 ft | 438 kts | 189° |
| 2026-05-08 02:04 | 24.49269 | -100.02838 | 35692 ft | 435 kts | 189° |
| 2026-05-08 02:05 | 24.46283 | -100.03051 | 36038 ft | 432 kts | 189° |
| 2026-05-08 02:05 | 24.43258 | -100.03268 | 36313 ft | 431 kts | 189° |
| 2026-05-08 02:05 | 24.40264 | -100.03484 | 36538 ft | 431 kts | 189° |
| 2026-05-08 02:05 | 24.37281 | -100.03700 | 36774 ft | 431 kts | 189° |
| 2026-05-08 02:06 | 24.34298 | -100.03916 | 37045 ft | 429 kts | 189° |
| 2026-05-08 02:06 | 24.31326 | -100.04130 | 37345 ft | 427 kts | 189° |
| 2026-05-08 02:06 | 24.28364 | -100.04344 | 37569 ft | 427 kts | 189° |
| 2026-05-08 02:06 | 24.25366 | -100.04561 | 37775 ft | 427 kts | 189° |
| 2026-05-08 02:07 | 24.22419 | -100.04773 | 38010 ft | 427 kts | 189° |
| 2026-05-08 02:07 | 24.19444 | -100.04990 | 37968 ft | 430 kts | 189° |
| 2026-05-08 02:07 | 24.13451 | -100.05422 | 37981 ft | 429 kts | 189° |
| 2026-05-08 02:08 | 24.07540 | -100.05844 | 37973 ft | 423 kts | 189° |
| 2026-05-08 02:08 | 24.01705 | -100.06263 | 37971 ft | 421 kts | 189° |
| 2026-05-08 02:09 | 23.95877 | -100.06682 | 37969 ft | 418 kts | 189° |
| 2026-05-08 02:09 | 23.90047 | -100.07101 | 37958 ft | 417 kts | 189° |
| 2026-05-08 02:10 | 23.84261 | -100.07517 | 37966 ft | 418 kts | 189° |
| 2026-05-08 02:10 | 23.78453 | -100.07935 | 37961 ft | 420 kts | 189° |
| 2026-05-08 02:11 | 23.72594 | -100.08354 | 37959 ft | 422 kts | 188° |
| 2026-05-08 02:11 | 23.66710 | -100.08775 | 37953 ft | 424 kts | 188° |
| 2026-05-08 02:12 | 23.63777 | -100.08985 | 37940 ft | 425 kts | 188° |